createdAt,value
2022-11-24T00:01:23.052Z,5.05
2022-11-24T00:03:56.086Z,6.57
2022-11-24T00:06:25.434Z,5.10
2022-11-24T00:08:54.011Z,4.40
2022-11-24T00:11:24.578Z,5.00
2022-11-24T00:13:53.759Z,5.32
2022-11-24T00:16:25.783Z,6.55
2022-11-24T00:18:56.143Z,5.57
2022-11-24T00:21:25.096Z,5.38
2022-11-24T00:23:54.026Z,6.40
2022-11-24T00:26:24.225Z,5.93
2022-11-24T00:28:54.155Z,6.22
2022-11-24T00:31:25.670Z,5.85
2022-11-24T00:33:55.313Z,6.25
2022-11-24T00:36:25.585Z,6.88
2022-11-24T00:38:55.839Z,7.97
2022-11-24T00:41:25.457Z,6.70
2022-11-24T00:43:53.991Z,6.57
2022-11-24T00:46:24.063Z,5.88
2022-11-24T00:48:53.829Z,7.90
2022-11-24T00:51:23.962Z,7.38
2022-11-24T00:53:53.231Z,6.38
2022-11-24T00:56:21.467Z,6.38
2022-11-24T00:58:50.621Z,7.22
2022-11-24T01:01:21.289Z,7.65
2022-11-24T01:03:51.453Z,6.43
2022-11-24T01:06:21.280Z,7.80
2022-11-24T01:08:49.596Z,7.18
2022-11-24T01:11:20.491Z,6.60
2022-11-24T01:13:50.461Z,5.75
2022-11-24T01:16:21.945Z,6.47
2022-11-24T01:18:51.792Z,6.53
2022-11-24T01:21:20.381Z,7.13
2022-11-24T01:23:48.684Z,6.38
2022-11-24T01:26:18.727Z,7.90
2022-11-24T01:28:47.921Z,6.45
2022-11-24T01:31:17.318Z,8.35
2022-11-24T01:33:45.660Z,7.80
2022-11-24T01:36:15.856Z,10.23
2022-11-24T01:38:44.244Z,10.20
2022-11-24T01:41:14.798Z,10.13
2022-11-24T01:43:44.057Z,9.63
2022-11-24T01:46:20.861Z,9.80
2022-11-24T01:48:53.877Z,10.02
2022-11-24T01:51:26.521Z,9.63
2022-11-24T01:53:59.129Z,9.90
2022-11-24T01:56:28.111Z,9.30
2022-11-24T01:58:59.585Z,8.60
2022-11-24T02:01:29.399Z,9.00
2022-11-24T02:03:58.289Z,8.55
2022-11-24T02:06:30.692Z,8.48
2022-11-24T02:09:02.282Z,8.60
2022-11-24T02:11:34.980Z,8.07
2022-11-24T02:14:05.124Z,8.18
2022-11-24T02:16:34.084Z,9.05
2022-11-24T02:19:02.386Z,9.18
2022-11-24T02:21:31.979Z,8.02
2022-11-24T02:24:08.008Z,8.05
2022-11-24T02:26:44.418Z,9.10
2022-11-24T02:29:13.394Z,8.90
2022-11-24T02:31:45.755Z,9.30
2022-11-24T02:34:13.863Z,9.10
2022-11-24T02:36:42.214Z,9.80
2022-11-24T02:39:12.426Z,11.55
2022-11-24T02:41:46.002Z,11.55
2022-11-24T02:44:17.010Z,12.25
2022-11-24T02:46:45.515Z,12.48
2022-11-24T02:49:13.671Z,12.40
2022-11-24T02:51:42.009Z,13.93
2022-11-24T02:54:10.316Z,12.75
2022-11-24T02:56:38.544Z,12.82
2022-11-24T02:59:08.424Z,14.20
2022-11-24T03:01:36.813Z,11.95
2022-11-24T03:04:05.403Z,13.85
2022-11-24T03:06:33.737Z,11.15
2022-11-24T03:09:02.003Z,10.00
2022-11-24T03:11:30.217Z,13.20
2022-11-24T03:13:58.512Z,11.80
2022-11-24T03:16:28.276Z,11.30
2022-11-24T03:18:57.254Z,11.02
2022-11-24T03:21:25.569Z,12.88
2022-11-24T03:23:55.646Z,11.25
2022-11-24T03:26:26.188Z,11.10
2022-11-24T03:28:56.266Z,11.63
2022-11-24T03:31:25.095Z,11.77
2022-11-24T03:33:54.697Z,10.05
2022-11-24T03:36:22.850Z,9.15
2022-11-24T03:38:51.191Z,9.52
2022-11-24T03:41:19.541Z,8.02
2022-11-24T03:43:47.841Z,8.35
2022-11-24T03:46:16.159Z,8.90
2022-11-24T03:48:44.635Z,9.27
2022-11-24T03:51:14.248Z,7.63
2022-11-24T03:53:42.576Z,8.13
2022-11-24T03:56:10.925Z,7.55
2022-11-24T03:58:39.002Z,8.10
2022-11-24T04:01:07.160Z,6.45
2022-11-24T04:03:35.403Z,9.20
2022-11-24T04:06:03.635Z,9.05
2022-11-24T04:08:33.274Z,8.32
2022-11-24T04:11:01.571Z,9.18
2022-11-24T04:13:29.059Z,9.13
2022-11-24T04:15:57.439Z,8.30
2022-11-24T04:18:25.696Z,9.82
2022-11-24T04:20:54.290Z,9.90
2022-11-24T04:23:22.579Z,9.38
2022-11-24T04:25:52.472Z,10.75
2022-11-24T04:28:20.784Z,9.20
2022-11-24T04:30:49.193Z,8.52
2022-11-24T04:33:17.394Z,10.07
2022-11-24T04:35:45.612Z,8.68
2022-11-24T04:38:13.783Z,8.60
2022-11-24T04:41:04.766Z,8.90
2022-11-24T04:43:37.698Z,8.75
2022-11-24T04:46:12.669Z,9.05
2022-11-24T04:48:40.950Z,9.27
2022-11-24T04:51:09.262Z,8.27
2022-11-24T04:53:37.497Z,8.93
2022-11-24T04:56:08.585Z,7.72
2022-11-24T04:58:37.365Z,11.25
2022-11-24T05:01:09.515Z,9.75
2022-11-24T05:03:37.879Z,9.02
2022-11-24T05:06:06.601Z,7.35
2022-11-24T05:08:34.855Z,9.00
2022-11-24T05:11:07.771Z,8.00
2022-11-24T05:13:36.207Z,8.27
2022-11-24T05:16:04.589Z,7.72
2022-11-24T05:18:32.911Z,8.68
2022-11-24T05:21:01.582Z,8.52
2022-11-24T05:23:29.874Z,8.13
2022-11-24T05:26:00.923Z,7.75
2022-11-24T05:28:31.057Z,6.90
2022-11-24T05:31:01.596Z,7.18
2022-11-24T05:33:30.548Z,7.25
2022-11-24T05:36:02.903Z,7.38
2022-11-24T05:38:31.173Z,5.97
2022-11-24T05:41:02.834Z,6.07
2022-11-24T05:43:32.479Z,5.75
2022-11-24T05:46:01.434Z,5.88
2022-11-24T05:48:29.742Z,5.53
2022-11-24T05:50:59.443Z,5.53
2022-11-24T05:53:27.672Z,5.88
2022-11-24T05:55:55.837Z,6.10
2022-11-24T05:58:24.323Z,5.40
2022-11-24T06:00:53.807Z,5.65
2022-11-24T06:03:22.243Z,4.68
2022-11-24T06:05:50.452Z,5.63
2022-11-24T06:08:18.647Z,5.50
2022-11-24T06:10:46.908Z,5.38
2022-11-24T06:13:15.330Z,5.50
2022-11-24T06:15:43.817Z,4.85
2022-11-24T06:18:16.891Z,4.93
2022-11-24T06:21:02.819Z,4.43
2022-11-24T06:23:33.747Z,4.10
2022-11-24T06:26:01.958Z,5.03
2022-11-24T06:28:30.220Z,4.40
2022-11-24T06:31:02.634Z,3.10
2022-11-24T06:33:36.179Z,3.60
2022-11-24T06:36:06.716Z,3.83
2022-11-24T06:38:36.898Z,4.05
2022-11-24T06:41:07.476Z,3.60
2022-11-24T06:43:36.628Z,3.80
2022-11-24T06:46:14.791Z,2.55
2022-11-24T06:48:44.812Z,3.70
2022-11-24T06:51:19.280Z,4.28
2022-11-24T06:53:48.132Z,3.72
2022-11-24T06:56:19.774Z,4.07
2022-11-24T06:58:50.062Z,2.85
2022-11-24T07:01:23.100Z,3.53
2022-11-24T07:03:57.474Z,4.40
2022-11-24T07:09:32.695Z,4.63
2022-11-24T07:12:02.518Z,5.18
2022-11-24T07:14:30.728Z,3.75
2022-11-24T07:16:58.978Z,3.45
2022-11-24T07:19:28.893Z,3.13
2022-11-24T07:21:57.499Z,4.07
2022-11-24T07:24:25.875Z,3.03
2022-11-24T07:26:54.299Z,3.63
2022-11-24T07:29:22.614Z,3.65
2022-11-24T07:31:52.882Z,3.45
2022-11-24T07:34:21.105Z,3.30
2022-11-24T07:36:51.259Z,3.42
2022-11-24T07:39:19.548Z,3.22
2022-11-24T07:41:47.832Z,3.42
2022-11-24T07:44:16.021Z,3.25
2022-11-24T07:46:44.362Z,3.60
2022-11-24T07:49:12.642Z,3.13
2022-11-24T07:51:40.930Z,3.15
2022-11-24T07:54:10.740Z,2.88
2022-11-24T07:57:00.157Z,2.90
2022-11-24T07:59:28.748Z,2.50
2022-11-24T08:01:57.322Z,2.45
2022-11-24T08:04:34.027Z,3.10
2022-11-24T08:07:03.962Z,2.30
2022-11-24T08:09:55.917Z,2.78
2022-11-24T08:12:24.529Z,2.80
2022-11-24T08:14:53.628Z,2.65
2022-11-24T08:17:24.319Z,2.10
2022-11-24T08:28:48.319Z,2.83
2022-11-24T08:35:13.338Z,2.22
2022-11-24T08:37:45.172Z,2.58
2022-11-24T08:45:17.478Z,2.30
2022-11-24T08:47:53.830Z,2.45
2022-11-24T08:50:22.287Z,2.55
2022-11-24T08:52:52.435Z,2.90
2022-11-24T08:55:21.018Z,2.45
2022-11-24T08:57:49.278Z,2.60
2022-11-24T09:22:57.810Z,3.00
2022-11-24T09:25:31.207Z,3.50
2022-11-24T09:28:05.479Z,3.42
2022-11-24T09:30:59.126Z,4.10
2022-11-24T09:33:44.480Z,4.10
2022-11-24T09:36:12.816Z,3.42
2022-11-24T09:38:42.967Z,4.25
2022-11-24T09:41:41.305Z,3.90
2022-11-24T09:44:33.064Z,4.13
2022-11-24T09:47:09.952Z,4.20
2022-11-24T09:49:48.479Z,3.35
2022-11-24T09:52:24.655Z,3.47
2022-11-24T09:54:59.972Z,3.75
2022-11-24T09:57:37.054Z,3.97
2022-11-24T10:19:03.133Z,4.32
2022-11-24T11:35:46.667Z,2.97
2022-11-24T11:38:38.970Z,3.72
2022-11-24T11:41:38.364Z,4.20
2022-11-24T11:44:58.474Z,4.22
2022-11-24T11:48:03.059Z,3.63
2022-11-24T11:51:24.620Z,3.55
2022-11-24T11:54:33.427Z,4.78
2022-11-24T12:00:18.535Z,4.00
2022-11-24T12:03:27.451Z,4.57
2022-11-24T12:06:37.145Z,4.25
2022-11-24T12:09:22.058Z,5.05
2022-11-24T12:12:05.214Z,4.63
2022-11-24T12:14:43.812Z,5.18
2022-11-24T12:17:20.703Z,4.65
2022-11-24T12:20:22.296Z,4.90
2022-11-24T12:23:32.847Z,4.80
2022-11-24T12:27:11.816Z,5.03
2022-11-24T12:34:16.470Z,4.00
2022-11-24T12:37:17.042Z,3.75
2022-11-24T12:39:53.388Z,3.95
2022-11-24T12:43:06.202Z,3.53
2022-11-24T12:45:40.558Z,3.15
2022-11-24T12:48:28.431Z,3.28
2022-11-24T12:50:58.035Z,4.30
2022-11-24T12:53:33.449Z,3.50
2022-11-24T12:56:08.555Z,3.65
2022-11-24T12:58:45.816Z,3.15
2022-11-24T13:01:40.673Z,3.35
2022-11-24T13:04:30.033Z,3.13
2022-11-24T13:07:39.484Z,3.67
2022-11-24T13:13:38.382Z,3.83
2022-11-24T13:16:48.568Z,2.83
2022-11-24T13:19:38.592Z,2.72
2022-11-24T13:22:38.221Z,3.05
2022-11-24T13:25:22.419Z,3.15
2022-11-24T13:28:04.102Z,3.30
2022-11-24T13:31:13.038Z,3.17
2022-11-24T13:33:47.381Z,2.70
2022-11-24T13:36:49.347Z,4.28
2022-11-24T13:39:56.838Z,3.28
2022-11-24T13:42:44.775Z,3.47
2022-11-24T13:45:55.075Z,2.95
2022-11-24T13:49:02.700Z,3.28
2022-11-24T13:51:40.626Z,3.17
2022-11-24T13:54:19.758Z,4.38
2022-11-24T13:56:58.235Z,3.65
2022-11-24T13:59:46.523Z,3.75
2022-11-24T14:02:24.874Z,3.38
2022-11-24T14:05:01.336Z,3.17
2022-11-24T14:07:34.870Z,3.53
2022-11-24T14:10:08.479Z,3.08
2022-11-24T14:12:43.052Z,3.55
2022-11-24T14:15:28.598Z,2.97
2022-11-24T14:18:25.944Z,3.30
2022-11-24T14:21:25.090Z,3.38
2022-11-24T14:27:32.166Z,3.70
2022-11-24T14:30:16.484Z,3.00
2022-11-24T14:33:12.281Z,2.95
2022-11-24T14:35:54.638Z,3.05
2022-11-24T14:41:31.867Z,2.83
2022-11-24T14:44:35.166Z,3.95
2022-11-24T14:47:18.847Z,3.65
2022-11-24T14:50:00.752Z,3.40
2022-11-24T14:52:35.136Z,3.05
2022-11-24T14:55:22.444Z,3.42
2022-11-24T14:57:56.546Z,3.65
2022-11-24T15:00:30.063Z,3.35
2022-11-24T15:03:16.074Z,3.40
2022-11-24T15:05:56.117Z,4.05
2022-11-24T15:08:28.742Z,3.33
2022-11-24T15:11:01.582Z,3.60
2022-11-24T15:13:31.576Z,3.83
2022-11-24T15:16:03.775Z,3.17
2022-11-24T15:18:40.765Z,4.30
2022-11-24T15:21:14.144Z,3.70
2022-11-24T15:24:07.276Z,3.38
2022-11-24T15:26:41.933Z,2.92
2022-11-24T15:29:11.137Z,3.20
2022-11-24T15:31:39.876Z,3.17
2022-11-24T15:34:08.792Z,3.40
2022-11-24T15:36:37.263Z,3.50
2022-11-24T15:39:05.498Z,4.10
2022-11-24T15:41:34.731Z,3.50
2022-11-24T15:44:04.578Z,3.33
2022-11-24T15:46:38.123Z,3.20
2022-11-24T15:49:07.456Z,3.75
2022-11-24T15:51:37.200Z,3.50
2022-11-24T15:54:07.309Z,3.65
2022-11-24T15:56:36.972Z,3.97
2022-11-24T15:59:21.271Z,4.97
2022-11-24T16:01:56.141Z,4.43
2022-11-24T16:04:24.554Z,4.85
2022-11-24T16:06:57.683Z,4.85
2022-11-24T16:09:29.036Z,6.03
2022-11-24T16:11:57.509Z,4.43
2022-11-24T16:14:36.486Z,5.15
2022-11-24T16:17:10.797Z,4.57
2022-11-24T16:19:53.310Z,3.78
2022-11-24T16:22:39.053Z,3.20
2022-11-24T16:25:16.510Z,3.85
2022-11-24T16:27:51.051Z,3.95
2022-11-24T16:30:25.545Z,4.38
2022-11-24T16:32:56.864Z,4.68
2022-11-24T16:35:32.303Z,3.90
2022-11-24T16:38:00.725Z,4.18
2022-11-24T16:40:29.111Z,4.57
2022-11-24T16:42:59.335Z,3.50
2022-11-24T16:45:29.338Z,3.90
2022-11-24T16:47:57.680Z,4.38
2022-11-24T16:50:25.901Z,3.65
2022-11-24T16:52:54.194Z,3.42
2022-11-24T16:55:22.716Z,3.05
2022-11-24T16:57:51.051Z,3.40
2022-11-24T17:00:20.085Z,2.95
2022-11-24T17:02:49.818Z,3.28
2022-11-24T17:05:18.362Z,3.05
2022-11-24T17:08:02.564Z,3.50
2022-11-24T17:10:31.146Z,2.55
2022-11-24T17:12:59.435Z,2.50
2022-11-24T17:15:37.835Z,2.80
2022-11-24T17:18:28.104Z,2.63
2022-11-24T17:21:09.739Z,2.60
2022-11-24T17:23:46.000Z,2.97
2022-11-24T17:26:43.480Z,3.08
2022-11-24T17:29:28.698Z,2.60
2022-11-24T17:32:10.597Z,2.30
2022-11-24T17:34:53.954Z,2.53
2022-11-24T17:37:24.895Z,2.92
2022-11-24T17:40:27.379Z,6.53
2022-11-24T17:42:52.218Z,3.78
2022-11-24T17:45:20.901Z,2.50
2022-11-24T17:47:49.587Z,4.28
2022-11-24T17:50:24.077Z,6.75
2022-11-24T17:53:06.302Z,5.85
2022-11-24T17:55:34.657Z,2.70
2022-11-24T17:58:03.089Z,4.38
2022-11-24T18:00:32.213Z,3.45
2022-11-24T18:03:01.633Z,3.25
2022-11-24T18:05:33.702Z,2.70
2022-11-24T18:08:02.134Z,3.95
2022-11-24T18:10:36.761Z,5.18
2022-11-24T18:13:05.401Z,3.95
2022-11-24T18:15:34.549Z,3.78
2022-11-24T18:18:04.765Z,4.03
2022-11-24T18:20:34.528Z,4.60
2022-11-24T18:23:06.338Z,5.32
2022-11-24T18:25:37.373Z,6.03
2022-11-24T18:28:06.048Z,4.15
2022-11-24T18:30:34.447Z,4.57
2022-11-24T18:33:07.395Z,4.25
2022-11-24T18:35:37.356Z,6.25
2022-11-24T18:38:05.745Z,5.75
2022-11-24T18:40:34.138Z,5.75
2022-11-24T18:43:02.695Z,7.00
2022-11-24T18:45:31.085Z,4.53
2022-11-24T18:47:59.554Z,5.25
2022-11-24T18:50:28.058Z,4.40
2022-11-24T18:53:40.410Z,6.32
2022-11-24T18:56:10.147Z,6.50
2022-11-24T18:58:38.643Z,8.77
2022-11-24T19:01:08.739Z,8.18
2022-11-24T19:03:42.330Z,7.63
2022-11-24T19:06:17.358Z,8.32
2022-11-24T19:08:47.704Z,11.93
2022-11-24T19:11:21.040Z,7.78
2022-11-24T19:14:10.179Z,6.65
2022-11-24T19:16:38.635Z,5.63
2022-11-24T19:19:06.920Z,5.47
2022-11-24T19:21:55.346Z,5.20
2022-11-24T19:24:38.987Z,5.03
2022-11-24T19:27:38.020Z,4.78
2022-11-24T19:30:28.855Z,4.50
2022-11-24T19:33:15.919Z,5.13
2022-11-24T19:35:58.834Z,4.90
2022-11-24T19:38:30.112Z,4.22
2022-11-24T19:41:03.967Z,5.18
2022-11-24T19:43:33.018Z,3.95
2022-11-24T19:46:02.802Z,5.13
2022-11-24T19:48:34.465Z,4.50
2022-11-24T19:51:03.629Z,3.97
2022-11-24T19:53:32.585Z,7.05
2022-11-24T19:56:07.219Z,4.13
2022-11-24T19:58:36.570Z,6.35
2022-11-24T20:01:09.346Z,5.07
2022-11-24T20:03:38.611Z,4.35
2022-11-24T20:06:15.403Z,5.88
2022-11-24T20:08:52.007Z,4.93
2022-11-24T20:11:35.042Z,4.13
2022-11-24T20:14:19.517Z,4.10
2022-11-24T20:17:01.556Z,4.60
2022-11-24T20:22:27.592Z,5.10
2022-11-24T20:25:07.786Z,4.95
2022-11-24T20:30:47.908Z,5.00
2022-11-24T20:33:16.995Z,5.90
2022-11-24T20:35:48.324Z,5.07
2022-11-24T20:38:26.942Z,4.93
2022-11-24T20:41:04.686Z,4.55
2022-11-24T20:43:39.208Z,4.75
2022-11-24T20:46:10.003Z,4.40
2022-11-24T20:49:12.164Z,4.53
2022-11-24T20:51:43.783Z,4.45
2022-11-24T20:54:14.379Z,4.18
2022-11-24T20:57:00.684Z,4.18
2022-11-24T20:59:31.024Z,4.13
2022-11-24T21:01:59.423Z,3.75
2022-11-24T21:04:28.757Z,4.93
2022-11-24T21:06:57.064Z,3.47
2022-11-24T21:09:27.297Z,3.55
2022-11-24T21:11:55.877Z,4.45
2022-11-24T21:14:35.098Z,4.05
2022-11-24T21:17:05.266Z,4.28
2022-11-24T21:19:44.477Z,3.60
2022-11-24T21:22:33.786Z,4.10
2022-11-24T21:25:30.637Z,3.67
2022-11-24T21:31:07.139Z,4.18
2022-11-24T21:34:24.107Z,4.07
2022-11-24T21:40:50.179Z,5.10
2022-11-24T21:43:34.392Z,4.68
2022-11-24T21:46:46.182Z,4.80
2022-11-24T21:49:35.864Z,9.38
2022-11-24T21:52:22.590Z,6.63
2022-11-24T21:55:16.672Z,8.52
2022-11-24T22:01:39.528Z,6.60
2022-11-24T22:05:10.939Z,5.78
2022-11-24T22:08:12.441Z,3.42
2022-11-24T22:10:46.386Z,5.40
2022-11-24T22:13:30.849Z,5.78
2022-11-24T22:16:23.021Z,3.13
2022-11-24T22:19:06.494Z,7.47
2022-11-24T22:22:00.879Z,4.63
2022-11-24T22:24:56.133Z,6.30
2022-11-24T22:27:43.555Z,3.00
2022-11-24T22:30:42.587Z,6.72
2022-11-24T22:33:37.039Z,6.22
2022-11-24T22:36:52.719Z,4.50
2022-11-24T22:39:40.334Z,6.75
2022-11-24T22:45:30.521Z,3.85
2022-11-24T22:48:34.494Z,3.67
2022-11-24T22:54:42.872Z,3.47
2022-11-24T23:01:41.596Z,2.30
2022-11-24T23:07:44.199Z,3.00
2022-11-24T23:10:21.097Z,2.88
2022-11-24T23:13:41.417Z,2.80
2022-11-24T23:16:26.121Z,2.88
2022-11-24T23:22:10.177Z,1.98
2022-11-24T23:24:45.152Z,2.38
2022-11-24T23:27:25.953Z,2.22
2022-11-24T23:30:33.960Z,3.03
2022-11-24T23:33:18.782Z,2.85
2022-11-24T23:36:05.403Z,2.17
2022-11-24T23:38:41.637Z,2.70
2022-11-24T23:41:26.118Z,2.58
2022-11-24T23:43:57.613Z,1.85
2022-11-24T23:46:43.307Z,2.70
2022-11-24T23:49:21.794Z,1.55
2022-11-24T23:51:51.233Z,2.47
2022-11-24T23:54:29.349Z,1.98
2022-11-24T23:57:14.436Z,2.97
2022-11-24T23:59:46.540Z,3.53
